Time;durP1;ratioP1;P1;durP2;ratioP2;P2;SDS_P1;SDS_P2;PMS_P1;PMS_P2;Temp;Humidity;BMP_temperature;BMP_pressure;BME280_temperature;BME280_humidity;BME280_pressure;Samples;Min_cycle;Max_cycle;Signal;HPM_P1;HPM_P2
2022/03/10 00:00:18;;;;;;;32.20;14.38;;;;;;;3.71;59.54;102012.25;5043315;28;20521;-73
2022/03/10 00:02:45;;;;;;;34.25;15.30;;;;;;;3.68;60.25;102012.88;5026349;28;20141;-72
2022/03/10 00:05:15;;;;;;;32.85;14.25;;;;;;;3.67;60.39;102016.75;5043747;28;20088;-73
2022/03/10 00:07:42;;;;;;;32.92;15.02;;;;;;;3.61;59.50;102009.03;5030454;28;20087;-73
2022/03/10 00:10:09;;;;;;;36.60;14.38;;;;;;;3.56;61.31;102011.88;5030786;28;20053;-72
2022/03/10 00:12:46;;;;;;;30.35;14.13;;;;;;;3.58;59.50;102020.59;5026076;28;20077;-73
2022/03/10 00:15:13;;;;;;;29.63;14.13;;;;;;;3.52;60.70;102016.41;5027746;28;20061;-72
2022/03/10 00:17:40;;;;;;;32.85;14.48;;;;;;;3.41;61.18;102012.34;5027791;28;20069;-74
2022/03/10 00:20:07;;;;;;;26.08;12.10;;;;;;;3.40;60.98;102016.19;5028275;28;20756;-72
2022/03/10 00:22:44;;;;;;;32.30;13.73;;;;;;;3.39;61.47;102023.63;5026891;28;20046;-71
2022/03/10 00:25:11;;;;;;;30.88;14.35;;;;;;;3.28;62.14;102014.09;5031192;28;20062;-73
2022/03/10 00:27:37;;;;;;;29.23;13.88;;;;;;;3.31;62.05;102023.59;5027002;28;20175;-72
2022/03/10 00:30:05;;;;;;;33.13;13.40;;;;;;;3.25;62.04;102014.72;5028224;28;20136;-73
2022/03/10 00:32:31;;;;;;;33.00;14.48;;;;;;;3.32;62.00;102036.94;5027640;28;20136;-71
2022/03/10 00:34:58;;;;;;;30.45;13.65;;;;;;;3.25;62.89;102036.59;5058967;28;20073;-71
2022/03/10 00:37:24;;;;;;;29.77;13.90;;;;;;;3.30;63.57;102043.88;5030989;28;20045;-72
2022/03/10 00:39:51;;;;;;;32.50;15.77;;;;;;;3.28;62.36;102044.19;5027131;28;20046;-74
2022/03/10 00:42:18;;;;;;;32.03;15.57;;;;;;;3.25;63.12;102044.00;5026871;28;20050;-73
2022/03/10 00:44:44;;;;;;;32.20;16.83;;;;;;;3.27;62.18;102045.28;5027842;28;20053;-73
2022/03/10 00:47:11;;;;;;;30.73;15.88;;;;;;;3.23;62.25;102041.56;5026153;28;20095;-73
2022/03/10 00:49:37;;;;;;;30.25;15.95;;;;;;;3.22;63.23;102039.16;5027042;28;20057;-73
2022/03/10 00:52:05;;;;;;;30.85;14.60;;;;;;;3.14;63.96;102043.47;5027552;28;20061;-73
2022/03/10 00:54:31;;;;;;;36.05;16.50;;;;;;;3.09;63.04;102043.63;5026402;28;20045;-73
2022/03/10 00:56:57;;;;;;;33.55;16.48;;;;;;;3.10;63.25;102044.44;5029489;28;20136;-74
2022/03/10 00:59:24;;;;;;;30.75;15.30;;;;;;;3.05;63.41;102039.09;5026937;28;20140;-73
2022/03/10 01:01:50;;;;;;;31.10;14.68;;;;;;;3.02;65.02;102031.50;5026864;28;20136;-73
2022/03/10 01:04:17;;;;;;;32.20;15.70;;;;;;;3.04;60.97;102046.50;5026616;28;20071;-71
2022/03/10 01:06:44;;;;;;;33.70;15.43;;;;;;;3.00;63.05;102045.50;5026853;28;20144;-73
2022/03/10 01:09:10;;;;;;;31.70;14.93;;;;;;;2.96;63.79;102035.53;5030010;28;20592;-74
2022/03/10 01:11:37;;;;;;;28.75;14.18;;;;;;;2.88;63.72;102034.34;5026220;28;20051;-73
2022/03/10 01:14:03;;;;;;;31.95;15.27;;;;;;;2.92;64.48;102038.06;5025867;28;20782;-72
2022/03/10 01:16:30;;;;;;;34.08;15.98;;;;;;;2.86;64.46;102036.56;5027530;28;20076;-71
2022/03/10 01:18:57;;;;;;;33.08;14.88;;;;;;;2.87;64.02;102031.94;5026754;28;20047;-72
2022/03/10 01:21:23;;;;;;;32.15;15.20;;;;;;;2.85;64.17;102037.72;5027092;28;20794;-73
2022/03/10 01:23:50;;;;;;;32.92;16.27;;;;;;;2.84;64.95;102036.09;5036059;28;20133;-72
2022/03/10 01:26:19;;;;;;;35.50;16.17;;;;;;;2.78;65.95;102029.94;5028450;28;20152;-73
2022/03/10 01:28:46;;;;;;;32.25;15.85;;;;;;;2.73;66.20;102029.25;5042197;28;20053;-72
2022/03/10 01:31:12;;;;;;;29.13;14.88;;;;;;;2.74;64.43;102031.69;5026287;28;20064;-71
2022/03/10 01:33:39;;;;;;;33.85;15.02;;;;;;;2.68;65.89;102032.16;5026969;28;20041;-71
2022/03/10 01:36:05;;;;;;;33.25;15.60;;;;;;;2.66;66.19;102027.00;5029777;28;20676;-72
2022/03/10 01:38:32;;;;;;;35.67;15.82;;;;;;;2.60;65.19;102021.97;5035970;28;20471;-73
2022/03/10 01:40:59;;;;;;;28.15;14.65;;;;;;;2.63;66.88;102030.34;5056166;28;20049;-73
2022/03/10 01:43:25;;;;;;;30.35;14.63;;;;;;;2.57;68.08;102028.06;5021779;28;20049;-72
2022/03/10 01:45:52;;;;;;;32.00;14.80;;;;;;;2.58;66.33;102029.66;5021841;28;20136;-72
2022/03/10 01:48:18;;;;;;;31.38;14.93;;;;;;;2.52;65.89;102025.44;5025699;28;20053;-73
2022/03/10 01:50:45;;;;;;;31.25;16.42;;;;;;;2.53;66.90;102032.50;5026729;28;20498;-70
2022/03/10 01:53:12;;;;;;;30.50;15.00;;;;;;;2.45;67.50;102027.81;5054700;28;20123;-75
2022/03/10 01:55:46;;;;;;;31.08;16.08;;;;;;;2.40;68.48;102026.00;5025660;28;20057;-73
2022/03/10 01:58:13;;;;;;;30.58;14.48;;;;;;;2.41;67.74;102026.81;5026786;28;20049;-71
2022/03/10 02:00:39;;;;;;;32.17;14.93;;;;;;;2.38;67.78;102013.78;5026777;28;20053;-72
2022/03/10 02:03:06;;;;;;;32.85;15.80;;;;;;;2.42;69.22;102028.44;5042478;28;20049;-72
2022/03/10 02:05:32;;;;;;;29.23;14.75;;;;;;;2.42;67.04;102022.97;5026111;28;20053;-74
2022/03/10 02:10:44;;;;;;;32.92;15.95;;;;;;;2.31;68.35;102025.16;5037802;28;20061;-72
2022/03/10 02:13:11;;;;;;;31.45;15.88;;;;;;;2.25;69.13;102036.50;5027254;28;20045;-72
2022/03/10 02:18:22;;;;;;;42.30;17.58;;;;;;;2.28;69.78;102031.25;5027392;28;20049;-73
2022/03/10 02:20:49;;;;;;;34.58;15.70;;;;;;;2.26;70.37;102027.22;5026472;28;20045;-72
2022/03/10 02:23:16;;;;;;;31.67;14.57;;;;;;;2.20;70.39;102028.44;5032191;28;20409;-76
2022/03/10 02:25:43;;;;;;;31.88;14.52;;;;;;;2.16;70.60;102024.72;5034778;28;20616;-71
2022/03/10 02:28:09;;;;;;;33.35;16.75;;;;;;;2.17;70.58;102020.88;5027093;28;20049;-74
2022/03/10 02:30:36;;;;;;;33.35;16.48;;;;;;;2.22;70.95;102028.94;5026930;28;20510;-72
2022/03/10 02:33:04;;;;;;;36.28;16.52;;;;;;;2.24;69.71;102022.06;5028614;28;20124;-71
2022/03/10 02:35:31;;;;;;;30.90;15.15;;;;;;;2.21;68.70;102011.75;5036160;28;20049;-73
2022/03/10 02:37:57;;;;;;;32.83;16.27;;;;;;;2.22;68.72;102012.53;5035134;28;20096;-76
2022/03/10 02:40:25;;;;;;;30.02;15.57;;;;;;;2.19;69.22;102013.16;5021754;28;20064;-74
2022/03/10 02:42:52;;;;;;;32.47;15.80;;;;;;;2.17;69.48;102012.69;5027011;28;20560;-71
2022/03/10 02:45:21;;;;;;;32.38;15.07;;;;;;;2.20;68.36;102014.78;5028069;28;20049;-71
2022/03/10 02:47:48;;;;;;;33.25;16.42;;;;;;;2.12;67.89;102007.31;5017554;28;20475;-74
2022/03/10 02:50:14;;;;;;;37.45;17.00;;;;;;;2.12;67.08;102010.88;5026431;28;20073;-72
2022/03/10 02:52:42;;;;;;;32.95;15.35;;;;;;;2.08;68.20;102006.34;5029868;28;20518;-71
2022/03/10 02:55:09;;;;;;;33.15;15.73;;;;;;;2.05;68.11;101994.13;5027275;28;20527;-72
2022/03/10 02:57:37;;;;;;;32.05;15.30;;;;;;;2.03;68.79;101996.34;5025830;28;20136;-73
2022/03/10 03:00:06;;;;;;;38.47;16.58;;;;;;;2.06;69.44;102008.59;5029626;28;20064;-72
2022/03/10 03:02:32;;;;;;;36.15;16.10;;;;;;;2.05;68.46;101998.75;5028558;28;20075;-73
2022/03/10 03:04:59;;;;;;;33.88;15.23;;;;;;;1.96;69.64;101997.91;5045807;28;20072;-72
2022/03/10 03:07:25;;;;;;;35.15;16.48;;;;;;;2.00;69.94;102007.09;5034402;28;20084;-73
2022/03/10 03:09:52;;;;;;;36.28;16.02;;;;;;;2.02;70.00;102015.75;5038754;28;20180;-71
2022/03/10 03:12:19;;;;;;;37.97;16.05;;;;;;;1.99;68.68;102014.44;5030440;28;20041;-71
2022/03/10 03:14:45;;;;;;;33.47;16.60;;;;;;;1.91;69.86;102014.38;5030193;28;20856;-72
2022/03/10 03:17:12;;;;;;;35.00;16.00;;;;;;;1.86;70.58;102017.25;5029544;28;20050;-72
2022/03/10 03:19:38;;;;;;;32.05;16.02;;;;;;;1.86;69.63;102020.75;5062461;28;20049;-71
2022/03/10 03:22:05;;;;;;;39.95;15.75;;;;;;;1.85;71.46;102021.06;5029422;28;20051;-73
2022/03/10 03:24:31;;;;;;;35.40;15.23;;;;;;;1.85;71.43;102023.78;5037149;28;20053;-71
2022/03/10 03:26:58;;;;;;;32.00;16.08;;;;;;;1.86;71.05;102026.22;5036456;28;20079;-72
2022/03/10 03:29:25;;;;;;;35.40;16.83;;;;;;;1.85;71.33;102029.25;5023682;28;20053;-72
2022/03/10 03:31:52;;;;;;;33.92;16.05;;;;;;;1.81;70.84;102028.25;5019016;28;20802;-73
2022/03/10 03:34:19;;;;;;;32.17;15.45;;;;;;;1.79;70.65;102027.78;5038588;28;20046;-71
2022/03/10 03:36:45;;;;;;;34.67;15.70;;;;;;;1.85;71.80;102024.59;5035238;28;20053;-71
2022/03/10 03:39:14;;;;;;;31.42;15.77;;;;;;;1.87;71.24;102032.50;5029757;28;20060;-73
2022/03/10 03:41:41;;;;;;;31.15;16.80;;;;;;;1.81;71.73;102022.78;5044872;28;20175;-73
2022/03/10 03:44:09;;;;;;;34.78;15.23;;;;;;;1.80;70.87;102026.66;5029315;28;20054;-73
2022/03/10 03:46:37;;;;;;;34.72;16.50;;;;;;;1.81;70.73;102026.34;5029511;28;20145;-71
2022/03/10 03:49:07;;;;;;;32.10;16.38;;;;;;;1.76;72.42;102031.91;5043791;28;20893;-71
2022/03/10 03:51:34;;;;;;;34.38;15.65;;;;;;;1.76;72.82;102042.81;5029241;28;20103;-71
2022/03/10 03:54:00;;;;;;;33.95;16.00;;;;;;;1.75;71.86;102041.22;5029582;28;20092;-73
2022/03/10 03:56:27;;;;;;;37.28;16.60;;;;;;;1.71;71.39;102044.84;5029018;28;20657;-70
2022/03/10 03:58:53;;;;;;;34.35;16.00;;;;;;;1.65;71.52;102038.69;5029574;28;20053;-71
2022/03/10 04:01:20;;;;;;;34.17;15.98;;;;;;;1.68;72.71;102046.28;5029158;28;20053;-72
2022/03/10 04:03:47;;;;;;;32.20;16.23;;;;;;;1.67;72.19;102058.31;5027953;28;20049;-73
2022/03/10 04:06:16;;;;;;;36.47;17.30;;;;;;;1.62;71.60;102047.50;5028491;28;20123;-72
2022/03/10 04:08:42;;;;;;;33.33;16.40;;;;;;;1.65;71.89;102049.63;5036755;28;20550;-72
2022/03/10 04:11:09;;;;;;;35.08;16.45;;;;;;;1.64;72.12;102048.00;5033057;28;20054;-73
2022/03/10 04:13:37;;;;;;;33.58;16.83;;;;;;;1.65;72.71;102049.63;5028934;28;20045;-72
2022/03/10 04:16:04;;;;;;;31.55;15.32;;;;;;;1.63;71.82;102048.31;5040113;28;20053;-71
2022/03/10 04:18:34;;;;;;;34.70;15.57;;;;;;;1.56;71.70;102048.72;5029521;28;20139;-72
2022/03/10 04:21:01;;;;;;;36.78;16.58;;;;;;;1.51;71.31;102048.00;5028731;28;20140;-72
2022/03/10 04:23:28;;;;;;;37.58;17.10;;;;;;;1.49;72.50;102045.59;5059986;28;20121;-71
2022/03/10 04:25:55;;;;;;;32.30;15.77;;;;;;;1.43;72.75;102043.28;5036165;28;20055;-71
2022/03/10 04:28:24;;;;;;;36.63;15.73;;;;;;;1.41;71.79;102045.50;5029180;28;20053;-71
2022/03/10 04:30:51;;;;;;;31.73;14.77;;;;;;;1.41;71.59;102043.56;5030120;28;20505;-73
2022/03/10 04:33:20;;;;;;;33.35;16.73;;;;;;;1.39;71.55;102043.06;5037664;28;20065;-75
2022/03/10 04:35:51;;;;;;;36.05;16.65;;;;;;;1.35;72.48;102041.28;5028633;28;20058;-71
2022/03/10 04:38:18;;;;;;;36.25;16.55;;;;;;;1.37;71.48;102036.31;5028473;28;20136;-73
2022/03/10 04:40:46;;;;;;;34.28;16.95;;;;;;;1.37;73.01;102039.03;5059327;28;20140;-74
2022/03/10 04:43:13;;;;;;;33.50;15.70;;;;;;;1.37;73.25;102041.75;5044084;28;20056;-77
2022/03/10 04:45:40;;;;;;;33.95;15.90;;;;;;;1.34;71.49;102043.19;5028063;28;20084;-72
2022/03/10 04:48:06;;;;;;;37.20;15.55;;;;;;;1.30;72.03;102036.72;5026713;28;20053;-72
2022/03/10 04:50:33;;;;;;;37.00;15.70;;;;;;;1.35;73.22;102042.06;5028486;28;20061;-72
2022/03/10 04:53:00;;;;;;;35.40;15.93;;;;;;;1.36;73.32;102042.88;5028581;28;20059;-73
2022/03/10 04:55:27;;;;;;;38.30;16.35;;;;;;;1.27;72.06;102033.78;5027972;28;20057;-72
2022/03/10 04:57:53;;;;;;;37.13;16.17;;;;;;;1.27;73.91;102036.50;5027446;28;20054;-72
2022/03/10 05:00:20;;;;;;;32.88;15.25;;;;;;;1.23;73.95;102035.50;5026429;28;20065;-72
2022/03/10 05:02:49;;;;;;;35.85;17.20;;;;;;;1.19;74.42;102032.59;5027789;28;20169;-72
2022/03/10 05:05:18;;;;;;;36.20;16.30;;;;;;;1.26;75.29;102043.91;5028441;28;20506;-73
2022/03/10 05:07:45;;;;;;;32.88;16.17;;;;;;;1.28;73.40;102040.88;5027762;28;20068;-72
2022/03/10 05:10:13;;;;;;;40.15;16.83;;;;;;;1.26;74.30;102054.00;5033429;28;20395;-72
2022/03/10 05:12:46;;;;;;;35.55;15.05;;;;;;;1.23;73.09;102051.88;5027698;28;20056;-72
2022/03/10 05:15:16;;;;;;;38.40;16.38;;;;;;;1.19;73.03;102050.84;5027589;28;20055;-73
2022/03/10 05:17:42;;;;;;;31.25;15.55;;;;;;;1.17;72.32;102053.06;5028096;28;20063;-73
2022/03/10 05:20:09;;;;;;;37.17;16.48;;;;;;;1.10;73.38;102048.03;5027881;28;20053;-72
2022/03/10 05:23:03;;;;;;;34.28;15.15;;;;;;;1.14;76.06;102051.75;5058982;28;20542;-72
2022/03/10 05:25:34;;;;;;;34.17;15.60;;;;;;;1.10;73.95;102044.47;5038416;28;20053;-72
2022/03/10 05:28:01;;;;;;;35.88;15.73;;;;;;;1.06;74.77;102052.47;5023794;28;20084;-72
2022/03/10 05:30:28;;;;;;;34.45;16.95;;;;;;;1.09;76.06;102053.78;5021342;28;20063;-72
2022/03/10 05:32:54;;;;;;;41.50;16.08;;;;;;;1.10;75.22;102055.38;5032406;28;20136;-70
2022/03/10 05:35:21;;;;;;;37.53;17.52;;;;;;;1.10;74.98;102055.38;5027318;28;20144;-73
2022/03/10 05:37:49;;;;;;;35.75;17.45;;;;;;;1.09;75.84;102054.59;5025715;28;20115;-72
2022/03/10 05:40:20;;;;;;;36.00;15.98;;;;;;;1.05;76.18;102058.22;5026990;28;20482;-71
2022/03/10 05:42:50;;;;;;;33.72;15.80;;;;;;;1.02;75.04;102058.81;5026840;28;20060;-73
2022/03/10 05:45:20;;;;;;;31.48;15.02;;;;;;;0.99;76.49;102062.97;5027998;28;20103;-74
2022/03/10 05:47:49;;;;;;;37.60;16.05;;;;;;;1.05;75.71;102071.84;5027474;28;20532;-73
2022/03/10 05:50:16;;;;;;;35.42;16.85;;;;;;;1.07;74.23;102066.88;5026990;28;21463;-72
2022/03/10 05:52:45;;;;;;;41.42;17.65;;;;;;;1.02;75.07;102065.09;5028260;28;20081;-73
2022/03/10 05:55:13;;;;;;;36.58;16.05;;;;;;;1.04;75.75;102064.78;5026717;28;20042;-74
2022/03/10 05:57:41;;;;;;;34.72;16.75;;;;;;;0.99;75.95;102071.13;5026948;28;20084;-72
2022/03/10 06:00:10;;;;;;;36.10;15.25;;;;;;;1.00;76.54;102061.03;5027307;28;20088;-73
2022/03/10 06:02:38;;;;;;;35.30;16.55;;;;;;;1.04;75.79;102072.97;5027204;28;20083;-74
2022/03/10 06:05:05;;;;;;;37.97;17.25;;;;;;;1.03;75.81;102068.59;5047174;28;20053;-73
2022/03/10 06:07:32;;;;;;;37.92;15.40;;;;;;;1.05;75.48;102069.91;5032456;28;20053;-73
2022/03/10 06:10:01;;;;;;;35.20;16.17;;;;;;;1.10;75.75;102082.63;5027518;28;20053;-73
2022/03/10 06:12:28;;;;;;;37.25;15.98;;;;;;;1.10;75.18;102083.47;5058658;28;20054;-73
2022/03/10 06:14:59;;;;;;;37.25;16.02;;;;;;;1.11;74.41;102084.28;5027713;28;20516;-75
2022/03/10 06:17:27;;;;;;;32.45;15.07;;;;;;;1.10;75.07;102086.19;5027278;28;20057;-72
2022/03/10 06:19:54;;;;;;;37.92;16.50;;;;;;;1.09;75.36;102091.94;5027835;28;20045;-72
2022/03/10 06:22:22;;;;;;;31.55;15.52;;;;;;;1.07;75.57;102088.69;5042346;28;20045;-71
2022/03/10 06:24:49;;;;;;;44.88;17.33;;;;;;;1.07;76.66;102097.69;5034308;28;20135;-72
2022/03/10 06:27:18;;;;;;;35.22;16.80;;;;;;;1.08;75.67;102087.59;5042415;28;20048;-72
2022/03/10 06:29:45;;;;;;;35.97;17.40;;;;;;;1.04;75.88;102094.78;5036878;28;20060;-71
2022/03/10 06:32:15;;;;;;;38.20;16.88;;;;;;;1.07;77.29;102096.88;5032973;28;20140;-71
2022/03/10 06:34:41;;;;;;;31.98;16.30;;;;;;;1.08;76.94;102095.78;5027969;28;20111;-71
2022/03/10 06:37:11;;;;;;;36.13;17.73;;;;;;;1.09;76.72;102091.94;5031586;28;20049;-72
2022/03/10 06:39:37;;;;;;;39.25;17.55;;;;;;;1.13;75.04;102099.22;5030861;28;20156;-73
2022/03/10 06:42:05;;;;;;;32.83;15.45;;;;;;;1.15;76.76;102104.38;5030585;28;20049;-73
2022/03/10 06:44:32;;;;;;;44.22;20.45;;;;;;;1.18;75.65;102104.56;5031203;28;20145;-71
2022/03/10 06:46:59;;;;;;;34.13;17.42;;;;;;;1.20;75.75;102107.00;5033606;28;20136;-74
2022/03/10 06:49:25;;;;;;;39.60;16.70;;;;;;;1.22;75.38;102110.25;5060086;28;20060;-74
2022/03/10 06:51:52;;;;;;;36.85;17.30;;;;;;;1.22;75.50;102107.50;5031741;28;20045;-74
2022/03/10 06:54:19;;;;;;;37.63;16.35;;;;;;;1.28;74.68;102101.66;5046254;28;20159;-74
2022/03/10 06:56:45;;;;;;;38.65;17.30;;;;;;;1.27;73.86;102102.75;5029461;28;20079;-75
2022/03/10 06:59:12;;;;;;;36.30;17.25;;;;;;;1.39;75.79;102111.25;5030770;28;20069;-75
2022/03/10 07:01:39;;;;;;;36.75;18.13;;;;;;;1.40;74.94;102104.69;5029265;28;20080;-72
2022/03/10 07:04:06;;;;;;;39.20;17.80;;;;;;;1.48;74.81;102116.84;5030982;28;20049;-74
2022/03/10 07:06:32;;;;;;;35.83;17.10;;;;;;;1.48;74.48;102117.63;5029583;28;20080;-76
2022/03/10 07:08:59;;;;;;;137.02;50.65;;;;;;;1.57;74.61;102125.91;5042021;28;20047;-76
2022/03/10 07:11:26;;;;;;;170.88;57.03;;;;;;;1.66;74.85;102121.38;5032340;28;20049;-75
2022/03/10 07:13:52;;;;;;;154.63;55.00;;;;;;;1.76;73.88;102118.44;5028430;28;20076;-73
2022/03/10 07:16:19;;;;;;;267.92;91.47;;;;;;;1.82;73.93;102119.94;5061969;28;20060;-72
2022/03/10 07:18:50;;;;;;;210.15;76.93;;;;;;;1.91;73.13;102118.09;5031217;28;20103;-74
2022/03/10 07:21:18;;;;;;;130.65;50.67;;;;;;;2.02;73.83;102130.41;5030515;28;20053;-74
2022/03/10 07:23:45;;;;;;;72.78;31.92;;;;;;;2.08;72.83;102126.47;5028635;28;20061;-73
2022/03/10 07:26:12;;;;;;;61.97;28.50;;;;;;;2.21;73.46;102125.63;5032437;28;20092;-75
2022/03/10 07:28:39;;;;;;;55.53;27.08;;;;;;;2.29;73.13;102127.63;5037212;28;20144;-72
2022/03/10 07:31:06;;;;;;;61.90;30.50;;;;;;;2.38;72.95;102126.59;5037344;28;20053;-74
2022/03/10 07:33:33;;;;;;;50.55;27.10;;;;;;;2.48;72.51;102133.75;5040969;28;20458;-75
2022/03/10 07:35:59;;;;;;;48.00;22.70;;;;;;;2.55;72.32;102132.22;5033282;28;20152;-73
2022/03/10 07:38:26;;;;;;;42.80;19.83;;;;;;;2.66;72.34;102127.28;5029322;28;20050;-74
2022/03/10 07:40:54;;;;;;;34.03;18.05;;;;;;;2.70;72.57;102126.38;5031706;28;20085;-74
2022/03/10 07:43:20;;;;;;;41.97;19.00;;;;;;;2.85;72.54;102127.09;5029873;28;20132;-75
2022/03/10 07:45:47;;;;;;;41.95;18.23;;;;;;;2.98;71.78;102123.50;5029565;28;20045;-76
2022/03/10 07:48:14;;;;;;;42.38;19.90;;;;;;;3.12;71.38;102125.03;5026627;28;20137;-74
2022/03/10 07:50:41;;;;;;;39.35;18.95;;;;;;;3.26;71.39;102124.94;5033143;28;20115;-74
2022/03/10 07:53:07;;;;;;;43.35;18.02;;;;;;;3.40;71.34;102123.72;5027953;28;20085;-75
2022/03/10 07:55:34;;;;;;;39.35;16.48;;;;;;;3.57;70.53;102129.25;5042711;28;20076;-73
2022/03/10 07:58:03;;;;;;;38.10;16.50;;;;;;;3.70;69.21;102122.88;5028788;28;20136;-77
2022/03/10 08:00:31;;;;;;;32.35;15.60;;;;;;;3.90;68.07;102121.47;5029535;28;20128;-73
2022/03/10 08:02:58;;;;;;;35.10;15.05;;;;;;;4.09;66.95;102124.75;5028810;28;20072;-72
2022/03/10 08:05:24;;;;;;;36.63;15.25;;;;;;;4.27;66.13;102118.16;5022274;28;20041;-74
2022/03/10 08:07:51;;;;;;;32.15;13.15;;;;;;;4.50;64.21;102117.69;5035097;28;20135;-74
2022/03/10 08:10:17;;;;;;;33.50;13.30;;;;;;;4.71;62.78;102118.63;5035746;28;20140;-71
2022/03/10 08:12:44;;;;;;;32.83;14.13;;;;;;;4.99;61.63;102114.41;5029140;28;20787;-76
2022/03/10 08:15:10;;;;;;;32.13;13.85;;;;;;;5.22;60.41;102113.03;5029417;28;20049;-74
2022/03/10 08:17:37;;;;;;;35.03;14.68;;;;;;;5.36;59.53;102108.16;5029455;28;20041;-72
2022/03/10 08:20:05;;;;;;;32.50;13.32;;;;;;;5.57;58.60;102108.22;5044663;28;20057;-74
2022/03/10 08:22:31;;;;;;;37.03;14.00;;;;;;;5.72;58.54;102112.34;5028456;28;20045;-72
2022/03/10 08:24:58;;;;;;;36.63;14.10;;;;;;;5.92;57.30;102115.19;5032546;28;20054;-75
2022/03/10 08:27:24;;;;;;;34.80;14.40;;;;;;;6.10;56.79;102115.84;5045533;28;20144;-72
2022/03/10 08:29:51;;;;;;;35.05;14.38;;;;;;;6.21;56.17;102117.88;5029223;28;20137;-72
2022/03/10 08:32:19;;;;;;;33.65;14.65;;;;;;;6.43;55.29;102114.00;5030261;28;20077;-71
2022/03/10 08:34:46;;;;;;;35.15;15.00;;;;;;;6.61;54.73;102110.78;5040776;28;20073;-72
2022/03/10 08:37:14;;;;;;;36.20;15.27;;;;;;;6.75;54.14;102100.28;5029121;28;20052;-71
2022/03/10 08:39:40;;;;;;;29.23;13.88;;;;;;;6.97;53.48;102097.16;5049884;28;20341;-72
2022/03/10 08:42:07;;;;;;;33.33;13.82;;;;;;;7.14;53.07;102085.97;5021915;28;20140;-75
2022/03/10 08:44:34;;;;;;;31.17;15.40;;;;;;;7.34;52.74;102090.59;5026748;28;20124;-72
2022/03/10 08:47:00;;;;;;;35.95;16.02;;;;;;;7.53;52.27;102096.31;5041897;28;20520;-71
2022/03/10 08:49:27;;;;;;;35.83;14.82;;;;;;;7.75;51.78;102100.59;5028749;28;20064;-75
2022/03/10 08:51:54;;;;;;;46.08;15.10;;;;;;;7.92;51.08;102089.31;5027276;28;20059;-72
2022/03/10 08:54:21;;;;;;;28.08;13.82;;;;;;;8.14;51.00;102088.03;5029118;28;20522;-74
2022/03/10 08:56:48;;;;;;;34.63;14.23;;;;;;;8.33;50.23;102093.78;5027436;28;20522;-73
2022/03/10 08:59:15;;;;;;;36.47;15.63;;;;;;;8.54;49.38;102083.34;5027843;28;20499;-73
2022/03/10 09:01:41;;;;;;;31.15;14.63;;;;;;;8.75;49.02;102089.47;5032113;28;20072;-73
2022/03/10 09:04:08;;;;;;;33.00;13.82;;;;;;;8.93;48.15;102082.47;5031806;28;20057;-73
2022/03/10 09:06:35;;;;;;;34.42;15.27;;;;;;;9.12;48.11;102077.88;5030447;28;20045;-73
2022/03/10 09:09:03;;;;;;;32.97;15.43;;;;;;;9.31;47.90;102080.72;5031669;28;20076;-72
2022/03/10 09:11:30;;;;;;;37.47;16.52;;;;;;;9.58;47.49;102085.38;5026707;28;20053;-77
2022/03/10 09:13:56;;;;;;;32.03;15.38;;;;;;;9.76;46.56;102067.22;5050133;28;20057;-76
2022/03/10 09:16:25;;;;;;;40.80;17.00;;;;;;;9.98;45.91;102077.63;5032606;28;20155;-72
2022/03/10 09:18:53;;;;;;;34.25;16.52;;;;;;;10.14;45.50;102075.66;5016882;28;20841;-73
2022/03/10 09:21:19;;;;;;;40.33;17.27;;;;;;;10.40;44.82;102078.59;5025109;28;20127;-73
2022/03/10 09:23:46;;;;;;;36.63;16.98;;;;;;;10.60;44.37;102082.19;5046474;28;20667;-73
2022/03/10 09:26:13;;;;;;;40.03;16.00;;;;;;;10.83;43.42;102073.94;5038349;28;20045;-74
2022/03/10 09:28:39;;;;;;;42.55;19.25;;;;;;;11.06;43.87;102074.75;5032952;28;20050;-72
2022/03/10 09:31:12;;;;;;;42.35;17.02;;;;;;;11.24;42.92;102073.13;5045633;28;20098;-69
2022/03/10 09:33:39;;;;;;;33.15;15.48;;;;;;;11.48;41.07;102072.72;5032400;28;20623;-73
2022/03/10 09:36:06;;;;;;;38.92;18.02;;;;;;;11.67;40.41;102064.34;5026848;28;20148;-71
2022/03/10 09:38:33;;;;;;;39.63;17.73;;;;;;;11.90;40.42;102057.59;5034922;28;20075;-73
2022/03/10 09:41:01;;;;;;;37.65;18.92;;;;;;;12.09;38.28;102056.69;5030085;28;20060;-73
2022/03/10 09:43:29;;;;;;;37.33;18.58;;;;;;;12.28;39.36;102043.44;5036423;28;20280;-69
2022/03/10 09:45:55;;;;;;;37.55;16.73;;;;;;;12.55;38.34;102055.28;5030078;28;20045;-74
2022/03/10 09:48:22;;;;;;;38.13;16.70;;;;;;;12.76;37.92;102050.78;5028183;28;20081;-74
2022/03/10 09:50:49;;;;;;;33.80;16.63;;;;;;;12.96;37.53;102051.38;5039035;28;20057;-73
2022/03/10 09:53:16;;;;;;;37.78;18.25;;;;;;;13.09;37.01;102029.72;5042803;28;20067;-72
2022/03/10 09:55:43;;;;;;;33.47;16.40;;;;;;;13.33;37.00;102041.03;5033396;28;20056;-74
2022/03/10 09:58:10;;;;;;;37.00;17.33;;;;;;;13.55;36.86;102039.22;5032478;28;20046;-70
2022/03/10 10:00:39;;;;;;;30.88;14.40;;;;;;;13.68;34.77;102035.78;5028955;28;20704;-77
2022/03/10 10:03:06;;;;;;;37.15;19.05;;;;;;;13.92;36.20;102040.69;5045253;28;20060;-71
2022/03/10 10:05:39;;;;;;;41.83;20.05;;;;;;;14.07;35.56;102036.03;5049339;28;20049;-73
2022/03/10 10:08:09;;;;;;;39.35;18.20;;;;;;;14.22;34.59;102030.16;5027338;28;20040;-70
2022/03/10 10:10:39;;;;;;;44.15;20.38;;;;;;;14.35;34.04;102036.97;5048138;28;20062;-71
2022/03/10 10:13:39;;;;;;;38.05;19.80;;;;;;;14.52;34.06;102030.66;5035393;28;20128;-69
2022/03/10 10:16:07;;;;;;;39.85;20.70;;;;;;;14.64;34.16;102033.09;5029343;28;20045;-71
2022/03/10 10:18:35;;;;;;;46.63;19.23;;;;;;;14.75;33.04;102035.94;5032446;28;20053;-70
2022/03/10 10:21:12;;;;;;;36.88;19.02;;;;;;;14.95;33.62;102023.25;5027259;28;20248;-72
2022/03/10 10:23:40;;;;;;;36.20;18.70;;;;;;;15.12;32.17;102025.25;5044808;28;20123;-71
2022/03/10 10:26:12;;;;;;;38.58;21.00;;;;;;;15.27;31.84;102038.81;5034958;28;20141;-71
2022/03/10 10:28:49;;;;;;;37.47;18.02;;;;;;;15.38;31.39;102027.69;5038915;28;20112;-69
2022/03/10 10:31:17;;;;;;;41.38;20.25;;;;;;;15.55;32.23;102014.94;5035510;28;20049;-72
2022/03/10 10:34:00;;;;;;;43.15;21.33;;;;;;;15.69;30.94;102014.91;5038329;28;20053;-73
2022/03/10 10:36:32;;;;;;;38.65;20.42;;;;;;;15.86;31.21;102014.84;5037444;28;20560;-73
2022/03/10 10:39:10;;;;;;;39.03;18.80;;;;;;;15.96;29.96;102011.25;5039294;28;20353;-73
2022/03/10 10:41:41;;;;;;;34.35;16.08;;;;;;;15.98;28.80;102005.25;5030648;28;20045;-75
2022/03/10 10:44:20;;;;;;;24.70;9.38;;;;;;;16.05;28.35;102014.41;5037812;28;20075;-73
2022/03/10 10:46:49;;;;;;;31.63;10.63;;;;;;;15.92;27.58;102009.66;5037773;28;20651;-74
2022/03/10 10:49:17;;;;;;;41.80;19.85;;;;;;;16.18;28.86;102003.59;5033049;28;20049;-74
2022/03/10 10:51:47;;;;;;;40.92;19.15;;;;;;;16.38;28.40;102005.53;5038696;28;20060;-73
2022/03/10 10:54:19;;;;;;;38.55;18.83;;;;;;;16.57;28.61;101999.47;5017936;28;20053;-73
2022/03/10 10:56:49;;;;;;;45.70;20.55;;;;;;;16.82;28.81;101999.31;5035554;28;20084;-75
2022/03/10 10:59:28;;;;;;;34.53;16.90;;;;;;;17.01;27.48;101993.97;5024423;28;20462;-73
2022/03/10 11:02:09;;;;;;;44.70;20.08;;;;;;;17.21;28.38;101994.25;5031227;28;20705;-74
2022/03/10 11:04:38;;;;;;;36.85;18.90;;;;;;;17.43;28.51;101993.69;5018649;28;20054;-75
2022/03/10 11:07:05;;;;;;;37.05;18.38;;;;;;;17.64;27.08;101985.09;5046904;28;20550;-72
2022/03/10 11:09:32;;;;;;;42.50;19.42;;;;;;;17.74;26.21;101984.19;5033668;28;20076;-72
2022/03/10 11:11:59;;;;;;;35.35;16.50;;;;;;;17.92;26.30;101973.56;5030057;28;20060;-73
2022/03/10 11:14:26;;;;;;;34.38;16.75;;;;;;;18.21;26.06;101976.03;5032073;28;20049;-73
2022/03/10 11:16:53;;;;;;;33.70;17.42;;;;;;;18.96;26.50;101966.97;5029776;28;20076;-73
2022/03/10 11:19:25;;;;;;;35.22;18.05;;;;;;;19.58;25.47;101971.97;5030590;28;20053;-73
2022/03/10 11:22:05;;;;;;;39.38;17.35;;;;;;;19.57;22.54;101981.59;5028147;28;20506;-73